createdAt,value
2024-03-07T13:29:26.030Z,8.80
2024-03-07T13:31:53.811Z,8.50
2024-03-07T13:34:20.520Z,7.25
2024-03-07T13:36:47.085Z,7.97
2024-03-07T13:39:15.371Z,7.47
2024-03-07T13:41:42.716Z,6.63
2024-03-07T13:44:09.427Z,7.20
2024-03-07T13:46:36.390Z,6.32
2024-03-07T13:49:17.916Z,7.45
2024-03-07T13:51:51.748Z,6.60
2024-03-07T13:54:35.543Z,6.78
2024-03-07T13:57:12.918Z,7.32
2024-03-07T14:00:30.659Z,6.20
2024-03-07T14:03:30.856Z,6.75
2024-03-07T14:06:07.725Z,6.23
2024-03-07T14:09:19.718Z,6.45
2024-03-07T14:12:15.240Z,6.22
2024-03-07T14:15:01.616Z,8.25
2024-03-07T14:17:55.805Z,6.65
2024-03-07T14:20:52.670Z,5.87
2024-03-07T14:23:41.158Z,5.28
2024-03-07T14:26:41.858Z,5.30
2024-03-07T14:29:23.876Z,5.22
2024-03-07T14:31:52.123Z,5.60
2024-03-07T14:34:48.762Z,5.70
2024-03-07T14:37:38.187Z,5.65
2024-03-07T14:40:11.621Z,5.90
2024-03-07T14:42:44.547Z,5.05
2024-03-07T14:45:15.240Z,6.55
2024-03-07T14:47:48.462Z,5.53
2024-03-07T14:50:17.380Z,5.63
2024-03-07T14:52:45.866Z,5.95
2024-03-07T14:55:14.755Z,5.38
2024-03-07T14:57:46.727Z,5.90
2024-03-07T15:02:57.181Z,5.55
2024-03-07T15:05:25.680Z,5.50
2024-03-07T15:07:54.149Z,5.75
2024-03-07T15:10:27.937Z,5.40
2024-03-07T15:12:54.750Z,4.80
2024-03-07T15:15:25.726Z,5.80
2024-03-07T15:17:52.891Z,5.50
2024-03-07T15:20:27.817Z,5.35
2024-03-07T15:22:55.990Z,6.05
2024-03-07T15:25:24.739Z,6.10
2024-03-07T15:27:53.213Z,5.40
2024-03-07T15:30:20.683Z,5.28
2024-03-07T15:32:48.320Z,6.30
2024-03-07T15:35:20.888Z,5.53
2024-03-07T15:37:51.186Z,6.17
2024-03-07T15:40:18.363Z,5.25
2024-03-07T15:42:46.680Z,5.60
2024-03-07T15:45:26.338Z,6.13
2024-03-07T15:47:58.429Z,5.45
2024-03-07T15:50:31.207Z,5.47
2024-03-07T15:53:01.427Z,5.80
2024-03-07T15:55:29.945Z,5.25
2024-03-07T15:58:05.412Z,4.78
2024-03-07T16:00:32.282Z,5.35
2024-03-07T16:03:11.942Z,6.03
2024-03-07T16:05:40.369Z,4.88
2024-03-07T16:08:09.787Z,5.75
2024-03-07T16:10:45.757Z,4.72
2024-03-07T16:13:15.624Z,5.75
2024-03-07T16:15:44.622Z,5.33
2024-03-07T16:18:12.776Z,6.32
2024-03-07T16:20:41.033Z,6.32
2024-03-07T16:23:07.981Z,6.32
2024-03-07T16:25:39.035Z,7.78
2024-03-07T16:28:13.374Z,6.10
2024-03-07T16:30:45.543Z,6.32
2024-03-07T16:33:13.159Z,12.30
2024-03-07T16:35:40.123Z,10.05
2024-03-07T16:38:10.995Z,16.67
2024-03-07T16:40:43.029Z,14.33
2024-03-07T16:43:13.399Z,13.43
2024-03-07T16:45:41.911Z,7.28
2024-03-07T16:48:11.601Z,7.82
2024-03-07T16:50:44.186Z,12.45
2024-03-07T16:53:11.834Z,5.60
2024-03-07T16:55:38.984Z,9.52
2024-03-07T16:58:14.670Z,8.13
2024-03-07T17:00:44.191Z,6.30
2024-03-07T17:03:13.325Z,8.98
2024-03-07T17:05:43.074Z,6.03
2024-03-07T17:08:16.594Z,5.97
2024-03-07T17:10:44.871Z,6.55
2024-03-07T17:13:13.974Z,6.85
2024-03-07T17:15:43.705Z,6.80
2024-03-07T17:18:12.359Z,6.77
2024-03-07T17:20:41.446Z,6.13
2024-03-07T17:23:10.968Z,6.57
2024-03-07T17:25:38.000Z,6.57
2024-03-07T17:28:05.246Z,7.97
2024-03-07T17:30:33.359Z,8.80
2024-03-07T17:33:01.949Z,8.30
2024-03-07T17:35:31.257Z,7.28
2024-03-07T17:38:02.759Z,6.35
2024-03-07T17:40:33.853Z,6.70
2024-03-07T17:43:05.189Z,6.47
2024-03-07T17:45:38.131Z,6.72
2024-03-07T17:48:07.522Z,6.03
2024-03-07T17:50:36.733Z,6.88
2024-03-07T17:53:12.371Z,6.95
2024-03-07T17:55:43.461Z,6.17
2024-03-07T17:58:11.961Z,6.20
2024-03-07T18:00:43.408Z,10.75
2024-03-07T18:03:10.406Z,6.95
2024-03-07T18:05:42.153Z,6.75
2024-03-07T18:08:34.115Z,6.47
2024-03-07T18:11:07.165Z,6.68
2024-03-07T18:13:34.562Z,6.70
2024-03-07T18:16:01.295Z,6.82
2024-03-07T18:18:28.436Z,7.13
2024-03-07T18:20:56.733Z,7.87
2024-03-07T18:23:23.567Z,7.10
2024-03-07T18:25:51.367Z,7.55
2024-03-07T18:28:21.622Z,7.28
2024-03-07T18:30:51.592Z,6.43
2024-03-07T18:33:19.554Z,6.83
2024-03-07T18:35:47.771Z,7.30
2024-03-07T18:38:15.803Z,9.55
2024-03-07T18:40:43.100Z,6.57
2024-03-07T18:43:12.442Z,6.55
2024-03-07T18:45:45.336Z,6.50
2024-03-07T18:48:13.973Z,6.50
2024-03-07T18:50:48.924Z,6.97
2024-03-07T18:53:21.551Z,6.03
2024-03-07T18:55:50.891Z,6.53
2024-03-07T18:58:19.200Z,6.37
2024-03-07T19:00:50.062Z,6.32
2024-03-07T19:03:21.734Z,7.60
2024-03-07T19:05:51.301Z,6.60
2024-03-07T19:08:21.642Z,7.95
2024-03-07T19:10:50.576Z,7.13
2024-03-07T19:13:19.982Z,7.47
2024-03-07T19:15:49.496Z,7.20
2024-03-07T19:18:17.695Z,6.57
2024-03-07T19:20:47.564Z,7.82
2024-03-07T19:23:17.814Z,6.73
2024-03-07T19:25:45.923Z,7.07
2024-03-07T19:28:16.422Z,8.02
2024-03-07T19:30:48.843Z,7.18
2024-03-07T19:33:16.119Z,8.35
2024-03-07T19:35:44.000Z,6.83
2024-03-07T19:38:11.229Z,7.60
2024-03-07T19:40:38.199Z,8.18
2024-03-07T19:43:08.215Z,7.72
2024-03-07T19:45:38.679Z,8.43
2024-03-07T19:48:06.291Z,7.50
2024-03-07T19:50:34.005Z,7.88
2024-03-07T19:53:03.566Z,7.50
2024-03-07T19:55:33.030Z,7.88
2024-03-07T19:58:00.006Z,7.43
2024-03-07T20:00:32.496Z,7.63
2024-03-07T20:03:08.153Z,7.93
2024-03-07T20:05:35.751Z,7.63
2024-03-07T20:08:07.407Z,6.93
2024-03-07T20:10:36.386Z,7.85
2024-03-07T20:13:03.361Z,7.37
2024-03-07T20:15:30.092Z,7.05
2024-03-07T20:17:58.272Z,8.35
2024-03-07T20:20:25.180Z,8.10
2024-03-07T20:22:55.933Z,7.32
2024-03-07T20:25:23.043Z,9.53
2024-03-07T20:27:55.829Z,8.63
2024-03-07T20:30:23.114Z,7.03
2024-03-07T20:32:50.817Z,8.48
2024-03-07T20:35:21.142Z,8.75
2024-03-07T20:37:49.949Z,8.10
2024-03-07T20:40:19.018Z,8.00
2024-03-07T20:42:45.942Z,7.63
2024-03-07T20:45:16.104Z,8.25
2024-03-07T20:47:49.486Z,7.78
2024-03-07T20:50:19.691Z,7.83
2024-03-07T20:52:53.710Z,8.23
2024-03-07T20:55:23.941Z,8.63
2024-03-07T20:57:52.101Z,8.30
2024-03-07T21:00:31.885Z,10.43
2024-03-07T21:02:58.658Z,8.00
2024-03-07T21:05:26.098Z,8.43
2024-03-07T21:07:56.866Z,8.90
2024-03-07T21:10:29.713Z,7.95
2024-03-07T21:12:57.974Z,8.45
2024-03-07T21:15:27.649Z,8.70
2024-03-07T21:17:59.290Z,8.40
2024-03-07T21:20:26.187Z,7.32
2024-03-07T21:22:52.966Z,8.15
2024-03-07T21:25:20.255Z,9.07
2024-03-07T21:27:51.405Z,7.80
2024-03-07T21:30:18.803Z,7.80
2024-03-07T21:32:46.928Z,7.88
2024-03-07T21:35:15.367Z,8.68
2024-03-07T21:37:43.729Z,8.68
2024-03-07T21:40:16.458Z,8.83
2024-03-07T21:42:43.946Z,8.45
2024-03-07T21:45:13.354Z,8.15
2024-03-07T21:47:43.338Z,9.13
2024-03-07T21:50:16.002Z,8.13
2024-03-07T21:52:51.589Z,7.93
2024-03-07T21:55:21.179Z,7.70
2024-03-07T21:57:49.350Z,9.57
